Time;durP1;ratioP1;P1;durP2;ratioP2;P2;SDS_P1;SDS_P2;PMS_P1;PMS_P2;Temp;Humidity;BMP_temperature;BMP_pressure;BME280_temperature;BME280_humidity;BME280_pressure;Samples;Min_cycle;Max_cycle;Signal;HPM_P1;HPM_P2
2021/06/20 00:01:30;;;;;;;9.43;8.63;;;21.00;99.90;;;;;;5018872;28;20049;-67
2021/06/20 00:03:57;;;;;;;9.95;8.90;;;21.00;99.90;;;;;;5016605;28;20782;-65
2021/06/20 00:06:38;;;;;;;9.70;8.85;;;20.90;99.90;;;;;;5014073;28;20103;-68
2021/06/20 00:09:12;;;;;;;10.30;9.30;;;20.90;99.90;;;;;;5015380;28;20091;-65
2021/06/20 00:11:42;;;;;;;9.50;8.73;;;20.90;99.90;;;;;;5015565;28;20140;-66
2021/06/20 00:14:09;;;;;;;10.82;9.82;;;20.80;99.90;;;;;;5014482;28;20598;-68
2021/06/20 00:16:38;;;;;;;9.88;8.90;;;20.80;99.90;;;;;;5013543;28;20100;-67
2021/06/20 00:19:06;;;;;;;12.48;10.13;;;20.80;99.90;;;;;;5016306;28;20223;-68
2021/06/20 00:21:33;;;;;;;9.75;8.95;;;20.70;99.90;;;;;;5013628;28;20075;-68
2021/06/20 00:24:00;;;;;;;10.10;9.25;;;20.70;99.90;;;;;;5016542;28;20140;-68
2021/06/20 00:26:27;;;;;;;10.35;9.35;;;20.70;99.90;;;;;;5011233;28;20052;-66
2021/06/20 00:28:54;;;;;;;10.23;9.27;;;20.70;99.90;;;;;;5015838;28;20512;-65
2021/06/20 00:31:21;;;;;;;10.50;9.60;;;20.60;99.90;;;;;;5014090;28;20123;-66
2021/06/20 00:33:48;;;;;;;10.18;9.38;;;20.60;99.90;;;;;;5015339;28;20041;-67
2021/06/20 00:36:15;;;;;;;11.35;10.25;;;20.60;99.90;;;;;;5013821;28;20056;-65
2021/06/20 00:38:42;;;;;;;11.30;9.85;;;20.50;99.90;;;;;;5013998;28;20159;-68
2021/06/20 00:41:09;;;;;;;9.40;8.63;;;20.50;99.90;;;;;;5016686;28;20526;-68
2021/06/20 00:43:36;;;;;;;9.98;8.88;;;20.50;99.90;;;;;;5018759;28;20126;-65
2021/06/20 00:46:05;;;;;;;10.60;9.50;;;20.40;99.90;;;;;;5018036;28;20080;-67
2021/06/20 00:48:32;;;;;;;11.13;10.17;;;20.40;99.90;;;;;;5018232;28;20041;-66
2021/06/20 00:50:59;;;;;;;9.60;8.70;;;20.40;99.90;;;;;;5017963;28;20133;-67
2021/06/20 00:53:26;;;;;;;10.32;9.52;;;20.30;99.90;;;;;;5018415;28;20053;-66
2021/06/20 00:55:53;;;;;;;10.05;9.00;;;20.20;99.90;;;;;;5017174;28;20041;-66
2021/06/20 00:58:23;;;;;;;10.02;9.10;;;20.20;99.90;;;;;;5019331;28;20148;-67
2021/06/20 01:00:50;;;;;;;11.32;10.18;;;20.20;99.90;;;;;;5016620;28;20801;-67
2021/06/20 01:03:17;;;;;;;11.55;10.45;;;20.10;99.90;;;;;;5018192;28;20077;-66
2021/06/20 01:05:45;;;;;;;10.65;9.73;;;20.10;99.90;;;;;;5017813;28;20537;-65
2021/06/20 01:08:12;;;;;;;10.68;9.27;;;20.10;99.90;;;;;;5018570;28;20068;-67
2021/06/20 01:10:39;;;;;;;10.93;9.80;;;20.10;99.90;;;;;;5015919;28;20153;-67
2021/06/20 01:13:10;;;;;;;11.32;9.93;;;20.10;99.90;;;;;;5018859;28;20551;-66
2021/06/20 01:15:37;;;;;;;11.13;10.27;;;20.00;99.90;;;;;;5018224;28;20069;-65
2021/06/20 01:18:06;;;;;;;11.60;10.50;;;20.00;99.90;;;;;;5019133;28;20662;-65
2021/06/20 01:20:33;;;;;;;10.77;9.73;;;19.90;99.90;;;;;;5016029;28;20600;-66
2021/06/20 01:23:00;;;;;;;11.40;10.60;;;19.90;99.90;;;;;;5018480;28;20519;-68
2021/06/20 01:25:29;;;;;;;11.38;10.35;;;19.90;99.90;;;;;;5018069;28;20056;-65
2021/06/20 01:28:05;;;;;;;10.60;9.70;;;19.80;99.90;;;;;;5019063;28;20233;-67
2021/06/20 01:30:35;;;;;;;10.88;10.07;;;19.80;99.90;;;;;;5016557;28;20140;-66
2021/06/20 01:33:04;;;;;;;;;;;19.80;99.90;;;;;;5020197;28;20615;-66
2021/06/20 01:35:31;;;;;;;10.63;9.32;;;19.80;99.90;;;;;;5021363;28;20002;-66
2021/06/20 01:38:00;;;;;;;11.18;10.18;;;19.70;99.90;;;;;;5022153;28;20053;-68
2021/06/20 01:40:27;;;;;;;11.68;10.68;;;19.70;99.90;;;;;;5019839;28;20113;-68
2021/06/20 01:42:54;;;;;;;10.75;9.95;;;19.60;99.90;;;;;;5022187;28;20073;-65
2021/06/20 01:45:23;;;;;;;11.77;10.68;;;19.60;99.90;;;;;;5018375;28;20692;-66
2021/06/20 01:47:52;;;;;;;12.52;11.43;;;19.60;99.90;;;;;;5016282;28;20052;-68
2021/06/20 01:50:20;;;;;;;11.60;10.68;;;19.60;99.90;;;;;;5016114;28;20164;-65
2021/06/20 01:52:47;;;;;;;12.27;11.07;;;19.60;99.90;;;;;;5017426;28;20466;-68
2021/06/20 01:55:15;;;;;;;13.82;11.15;;;19.60;99.90;;;;;;5020654;28;20133;-65
2021/06/20 01:57:44;;;;;;;12.07;11.17;;;19.50;99.90;;;;;;5018266;28;20060;-65
2021/06/20 02:00:16;;;;;;;13.10;10.35;;;19.50;99.90;;;;;;5020433;28;20309;-66
2021/06/20 02:02:44;;;;;;;14.82;11.00;;;19.50;99.90;;;;;;5017802;28;20080;-66
2021/06/20 02:05:12;;;;;;;10.82;9.93;;;19.50;99.90;;;;;;5020103;28;20061;-67
2021/06/20 02:07:39;;;;;;;11.07;10.15;;;19.40;99.90;;;;;;5020004;28;20041;-67
2021/06/20 02:10:09;;;;;;;12.88;11.52;;;19.40;99.90;;;;;;5021313;28;20080;-66
2021/06/20 02:12:37;;;;;;;11.23;10.13;;;19.40;99.90;;;;;;5019602;28;20107;-66
2021/06/20 02:15:09;;;;;;;11.18;10.20;;;19.40;99.90;;;;;;5020822;28;20059;-68
2021/06/20 02:17:38;;;;;;;10.32;9.52;;;19.40;99.90;;;;;;5020048;28;20498;-68
2021/06/20 02:20:08;;;;;;;12.15;11.13;;;19.40;99.90;;;;;;5020641;28;20226;-65
2021/06/20 02:22:36;;;;;;;12.43;11.35;;;19.40;99.90;;;;;;5018305;28;20170;-68
2021/06/20 02:25:03;;;;;;;11.02;10.05;;;19.30;99.90;;;;;;5020585;28;20159;-65
2021/06/20 02:27:30;;;;;;;13.40;11.38;;;19.30;99.90;;;;;;5019006;28;20045;-66
2021/06/20 02:29:58;;;;;;;12.00;11.02;;;19.40;99.90;;;;;;5021511;28;20134;-68
2021/06/20 02:32:25;;;;;;;11.90;10.80;;;19.30;99.90;;;;;;5018723;28;20053;-66
2021/06/20 02:34:53;;;;;;;11.13;10.32;;;19.30;99.90;;;;;;5021654;28;20068;-66
2021/06/20 02:37:21;;;;;;;12.40;11.35;;;19.30;99.90;;;;;;5018088;28;20141;-68
2021/06/20 02:39:49;;;;;;;12.00;10.90;;;19.40;99.90;;;;;;5021960;28;20530;-68
2021/06/20 02:42:16;;;;;;;10.00;9.20;;;19.40;99.90;;;;;;5020448;28;20069;-65
2021/06/20 02:44:45;;;;;;;12.23;10.75;;;19.30;99.90;;;;;;5019674;28;20053;-66
2021/06/20 02:47:13;;;;;;;13.18;12.02;;;19.40;99.90;;;;;;5017935;28;20053;-68
2021/06/20 02:49:41;;;;;;;12.30;11.25;;;19.40;99.90;;;;;;5020067;28;20502;-67
2021/06/20 02:52:10;;;;;;;12.32;11.27;;;19.40;99.90;;;;;;5018153;28;20140;-67
2021/06/20 02:54:37;;;;;;;11.98;11.07;;;19.40;99.90;;;;;;5016815;28;20597;-67
2021/06/20 02:57:05;;;;;;;13.02;11.82;;;19.40;99.90;;;;;;5017976;28;20069;-66
2021/06/20 02:59:32;;;;;;;12.98;11.90;;;19.40;99.90;;;;;;5019684;28;20123;-67
2021/06/20 03:01:59;;;;;;;12.82;11.82;;;19.40;99.90;;;;;;5017805;28;20084;-65
2021/06/20 03:04:26;;;;;;;11.85;10.75;;;19.40;99.90;;;;;;5017925;28;20045;-68
2021/06/20 03:06:53;;;;;;;12.55;11.45;;;19.40;99.90;;;;;;5017701;28;20074;-68
2021/06/20 03:09:20;;;;;;;11.25;10.25;;;19.40;99.90;;;;;;5019699;28;20130;-66
2021/06/20 03:11:46;;;;;;;12.98;11.80;;;19.40;99.90;;;;;;5018748;28;20152;-65
2021/06/20 03:14:14;;;;;;;12.18;11.27;;;19.40;99.90;;;;;;5020071;28;20611;-65
2021/06/20 03:16:45;;;;;;;12.23;11.13;;;19.40;99.90;;;;;;5016818;28;20153;-68
2021/06/20 03:19:13;;;;;;;12.18;11.25;;;19.50;99.90;;;;;;5020522;28;20571;-66
2021/06/20 03:21:41;;;;;;;12.27;11.27;;;19.50;99.90;;;;;;5018551;28;20087;-65
2021/06/20 03:24:09;;;;;;;11.40;10.50;;;19.50;99.90;;;;;;5019279;28;20128;-65
2021/06/20 03:26:37;;;;;;;12.43;11.27;;;19.50;99.90;;;;;;5016197;28;20115;-66
2021/06/20 03:29:04;;;;;;;13.60;12.35;;;19.60;99.90;;;;;;5018860;28;20147;-65
2021/06/20 03:31:32;;;;;;;12.88;11.77;;;19.60;99.90;;;;;;5018132;28;20131;-66
2021/06/20 03:34:00;;;;;;;13.70;12.52;;;19.70;99.90;;;;;;5019815;28;20134;-66
2021/06/20 03:36:28;;;;;;;13.90;12.65;;;19.70;99.90;;;;;;5015461;28;20068;-67
2021/06/20 03:38:55;;;;;;;12.65;11.75;;;19.70;99.90;;;;;;5020034;28;20141;-67
2021/06/20 03:41:23;;;;;;;12.48;11.18;;;19.70;99.90;;;;;;5018234;28;20060;-66
2021/06/20 03:43:51;;;;;;;11.90;10.90;;;19.70;99.90;;;;;;5019373;28;20053;-68
2021/06/20 03:46:18;;;;;;;12.60;11.70;;;19.80;99.90;;;;;;5017699;28;20077;-68
2021/06/20 03:48:46;;;;;;;11.10;10.20;;;19.80;99.90;;;;;;5017507;28;20060;-67
2021/06/20 03:51:13;;;;;;;12.40;11.32;;;19.80;99.90;;;;;;5016672;28;20080;-67
2021/06/20 03:53:40;;;;;;;14.82;11.93;;;19.90;99.90;;;;;;5012965;28;20161;-65
2021/06/20 03:56:07;;;;;;;13.23;12.02;;;19.90;99.90;;;;;;5013484;28;20148;-67
2021/06/20 03:58:34;;;;;;;13.38;12.20;;;19.90;99.90;;;;;;5014791;28;20099;-67
2021/06/20 04:01:01;;;;;;;13.75;12.48;;;20.00;99.90;;;;;;5011725;28;20141;-66
2021/06/20 04:03:28;;;;;;;13.02;11.77;;;20.10;99.90;;;;;;5015327;28;20128;-66
2021/06/20 04:05:55;;;;;;;12.50;11.50;;;20.20;99.90;;;;;;5013913;28;20230;-65
2021/06/20 04:08:22;;;;;;;12.13;11.02;;;20.20;99.90;;;;;;5015183;28;20136;-66
2021/06/20 04:10:49;;;;;;;12.30;11.30;;;20.30;99.90;;;;;;5013745;28;20140;-68
2021/06/20 04:13:16;;;;;;;14.20;11.90;;;20.40;99.90;;;;;;5016739;28;20140;-65
2021/06/20 04:15:43;;;;;;;12.32;11.40;;;20.60;99.90;;;;;;5013821;28;20148;-65
2021/06/20 04:18:10;;;;;;;12.80;11.60;;;20.70;99.90;;;;;;5018668;28;20147;-67
2021/06/20 04:20:37;;;;;;;11.63;10.80;;;20.80;99.90;;;;;;5014776;28;20041;-66
2021/06/20 04:23:04;;;;;;;14.70;11.65;;;20.90;99.90;;;;;;5016608;28;20045;-67
2021/06/20 04:25:32;;;;;;;13.63;12.43;;;21.00;99.90;;;;;;5016400;28;20443;-68
2021/06/20 04:27:59;;;;;;;10.77;9.70;;;21.10;99.90;;;;;;5015546;28;20086;-68
2021/06/20 04:30:26;;;;;;;14.63;13.15;;;21.10;99.90;;;;;;5016947;28;20584;-67
2021/06/20 04:32:53;;;;;;;12.82;11.73;;;21.10;99.90;;;;;;5017249;28;20068;-65
2021/06/20 04:35:22;;;;;;;12.80;11.73;;;21.10;99.90;;;;;;5016684;28;20085;-67
2021/06/20 04:37:50;;;;;;;13.13;12.10;;;21.20;99.90;;;;;;5016683;28;20045;-65
2021/06/20 04:40:20;;;;;;;12.82;11.82;;;21.20;99.90;;;;;;5015825;28;20060;-68
2021/06/20 04:42:55;;;;;;;;;;;21.20;99.90;;;;;;5015885;28;21428;-67
2021/06/20 04:45:22;;;;;;;12.02;11.02;;;21.20;99.90;;;;;;5016149;28;20036;-66
2021/06/20 04:47:50;;;;;;;13.20;11.75;;;21.20;99.90;;;;;;5015364;28;20507;-68
2021/06/20 04:50:17;;;;;;;14.23;12.75;;;21.20;99.90;;;;;;5016965;28;20543;-65
2021/06/20 04:52:44;;;;;;;12.15;11.00;;;21.30;99.90;;;;;;5012609;28;20144;-68
2021/06/20 04:55:11;;;;;;;12.48;11.48;;;21.30;99.90;;;;;;5015898;28;20176;-66
2021/06/20 04:57:38;;;;;;;13.38;12.05;;;21.40;99.90;;;;;;5015445;28;20103;-65
2021/06/20 05:00:08;;;;;;;12.80;11.70;;;21.50;99.90;;;;;;5017631;28;20076;-67
2021/06/20 05:02:35;;;;;;;12.65;11.45;;;21.60;99.90;;;;;;5012245;28;20049;-66
2021/06/20 05:05:04;;;;;;;12.65;11.48;;;21.80;99.90;;;;;;5016229;28;20127;-66
2021/06/20 05:07:31;;;;;;;12.13;11.13;;;22.00;99.90;;;;;;5015499;28;20077;-67
2021/06/20 05:09:58;;;;;;;13.45;12.40;;;22.10;99.90;;;;;;5017849;28;20076;-68
2021/06/20 05:12:25;;;;;;;13.75;12.35;;;22.20;99.90;;;;;;5016738;28;20526;-66
2021/06/20 05:14:52;;;;;;;12.77;11.77;;;22.20;99.90;;;;;;5019577;28;20045;-65
2021/06/20 05:17:20;;;;;;;13.32;11.48;;;22.30;99.90;;;;;;5019924;28;20131;-67
2021/06/20 05:19:47;;;;;;;13.65;12.35;;;22.40;99.90;;;;;;5020480;28;20045;-65
2021/06/20 05:22:17;;;;;;;12.63;11.60;;;22.40;99.90;;;;;;5020546;28;20049;-66
2021/06/20 05:24:44;;;;;;;13.35;12.10;;;22.50;99.90;;;;;;5018457;28;20145;-67
2021/06/20 05:27:11;;;;;;;13.15;11.98;;;22.50;99.90;;;;;;5020410;28;20144;-67
2021/06/20 05:29:39;;;;;;;12.57;11.57;;;22.60;99.90;;;;;;5020639;28;20045;-68
2021/06/20 05:32:06;;;;;;;12.27;11.38;;;22.70;99.90;;;;;;5019911;28;20458;-66
2021/06/20 05:34:34;;;;;;;12.40;11.40;;;22.80;99.90;;;;;;5019734;28;20368;-66
2021/06/20 05:37:01;;;;;;;13.13;11.93;;;22.80;99.90;;;;;;5018582;28;20095;-66
2021/06/20 05:39:28;;;;;;;12.73;11.63;;;22.90;99.90;;;;;;5021009;28;20049;-65
2021/06/20 05:41:55;;;;;;;13.40;12.35;;;22.90;99.90;;;;;;5020633;28;20132;-66
2021/06/20 05:44:22;;;;;;;12.40;11.40;;;22.90;99.90;;;;;;5020140;28;20050;-67
2021/06/20 05:46:49;;;;;;;11.95;11.02;;;23.00;99.90;;;;;;5018142;28;20069;-66
2021/06/20 05:49:16;;;;;;;12.73;11.65;;;23.00;99.90;;;;;;5020704;28;20077;-66
2021/06/20 05:51:42;;;;;;;12.85;11.75;;;23.10;99.90;;;;;;5019000;28;20092;-65
2021/06/20 05:54:10;;;;;;;11.02;10.23;;;23.20;99.90;;;;;;5020799;28;20053;-67
2021/06/20 05:56:37;;;;;;;13.07;12.00;;;23.30;99.90;;;;;;5017051;28;20168;-65
2021/06/20 05:59:05;;;;;;;12.88;11.77;;;23.30;99.90;;;;;;5018754;28;20116;-65
2021/06/20 06:01:33;;;;;;;13.82;12.55;;;23.40;99.90;;;;;;5019902;28;20706;-67
2021/06/20 06:04:00;;;;;;;11.93;10.93;;;23.40;99.90;;;;;;5020650;28;20056;-65
2021/06/20 06:06:27;;;;;;;11.90;10.77;;;23.40;99.90;;;;;;5014659;28;20148;-68
2021/06/20 06:09:10;;;;;;;12.50;11.63;;;23.50;99.90;;;;;;808835;28;10004113;-66
2021/06/20 06:11:36;;;;;;;12.50;11.50;;;23.60;99.90;;;;;;5019472;28;20315;-68
2021/06/20 06:14:03;;;;;;;11.55;10.60;;;23.60;99.90;;;;;;5018257;28;20472;-68
2021/06/20 06:16:30;;;;;;;13.13;11.95;;;23.70;99.90;;;;;;5017653;28;20168;-66
2021/06/20 06:18:57;;;;;;;12.40;11.30;;;23.80;99.90;;;;;;5013900;28;20046;-66
2021/06/20 06:21:24;;;;;;;12.93;11.77;;;23.90;99.90;;;;;;5017162;28;20132;-67
2021/06/20 06:23:51;;;;;;;12.38;11.25;;;24.00;99.90;;;;;;5019146;28;20095;-67
2021/06/20 06:26:18;;;;;;;14.23;13.02;;;24.10;99.90;;;;;;5019731;28;20053;-66
2021/06/20 06:28:45;;;;;;;13.52;12.10;;;24.10;99.90;;;;;;5016735;28;20052;-66
2021/06/20 06:31:12;;;;;;;13.25;11.77;;;24.20;99.90;;;;;;5019202;28;20095;-65
2021/06/20 06:33:39;;;;;;;11.23;10.35;;;24.30;99.90;;;;;;5019757;28;20045;-68
2021/06/20 06:36:06;;;;;;;12.93;11.93;;;24.30;99.90;;;;;;5019594;28;20569;-66
2021/06/20 06:38:33;;;;;;;12.48;11.57;;;24.30;99.90;;;;;;5017227;28;20172;-66
2021/06/20 06:41:00;;;;;;;12.27;11.32;;;24.40;99.90;;;;;;5018837;28;20053;-66
2021/06/20 06:43:27;;;;;;;11.60;10.50;;;24.50;99.90;;;;;;5018602;28;20717;-66
2021/06/20 06:45:54;;;;;;;12.88;11.93;;;24.50;99.90;;;;;;5018652;28;20959;-68
2021/06/20 06:48:21;;;;;;;12.20;11.05;;;24.70;99.90;;;;;;5017697;28;20114;-67
2021/06/20 06:50:48;;;;;;;12.18;11.18;;;24.70;99.90;;;;;;5017556;28;20191;-67
2021/06/20 06:53:15;;;;;;;12.48;11.48;;;24.70;99.90;;;;;;5018830;28;20169;-66
2021/06/20 06:55:42;;;;;;;13.48;11.60;;;24.80;99.90;;;;;;5019567;28;20400;-65
2021/06/20 06:58:09;;;;;;;12.30;11.30;;;24.80;99.90;;;;;;5018963;28;20045;-65
2021/06/20 07:00:36;;;;;;;13.55;12.23;;;24.90;99.90;;;;;;5017213;28;20138;-68
2021/06/20 07:03:03;;;;;;;13.25;11.73;;;25.00;99.90;;;;;;5017238;28;20053;-65
2021/06/20 07:05:30;;;;;;;10.65;9.85;;;25.10;99.90;;;;;;5019205;28;20453;-66
2021/06/20 07:07:57;;;;;;;13.25;12.02;;;25.10;99.90;;;;;;5018164;28;20090;-66
2021/06/20 07:10:24;;;;;;;11.70;10.63;;;25.10;99.90;;;;;;5015618;28;20143;-68
2021/06/20 07:12:51;;;;;;;12.65;11.65;;;25.10;99.90;;;;;;5017568;28;20188;-67
2021/06/20 07:15:18;;;;;;;12.60;11.30;;;25.10;99.90;;;;;;5018963;28;20482;-65
2021/06/20 07:17:46;;;;;;;13.35;12.15;;;24.90;99.90;;;;;;5015662;28;20059;-67
2021/06/20 07:20:17;;;;;;;11.65;10.85;;;24.80;99.90;;;;;;5016938;28;20680;-66
2021/06/20 07:22:46;;;;;;;11.75;10.73;;;24.80;99.90;;;;;;5016244;28;20041;-67
2021/06/20 07:25:18;;;;;;;12.40;11.27;;;24.80;99.90;;;;;;5016504;28;20045;-66
2021/06/20 07:27:46;;;;;;;11.02;9.45;;;24.90;99.90;;;;;;5014135;28;20148;-67
2021/06/20 07:30:17;;;;;;;11.55;10.57;;;24.90;99.90;;;;;;5016276;28;20069;-66
2021/06/20 07:32:44;;;;;;;11.93;10.98;;;24.90;99.90;;;;;;5015977;28;20136;-69
2021/06/20 07:35:12;;;;;;;12.55;11.32;;;25.10;99.90;;;;;;5018340;28;20111;-66
2021/06/20 07:37:39;;;;;;;13.32;11.40;;;25.20;99.90;;;;;;5018509;28;20152;-68
2021/06/20 07:40:09;;;;;;;11.13;10.30;;;25.00;99.90;;;;;;5017944;28;20468;-67
2021/06/20 07:42:37;;;;;;;11.48;10.43;;;24.90;99.90;;;;;;5016346;28;20095;-67
2021/06/20 07:45:05;;;;;;;12.05;11.05;;;25.00;99.90;;;;;;5018756;28;20042;-65
2021/06/20 07:47:32;;;;;;;11.40;10.40;;;25.00;99.90;;;;;;5017556;28;20490;-66
2021/06/20 07:50:00;;;;;;;11.75;10.85;;;25.10;99.90;;;;;;5018356;28;20063;-67
2021/06/20 07:52:27;;;;;;;11.43;10.45;;;25.30;99.90;;;;;;5013841;28;20065;-66
2021/06/20 07:54:54;;;;;;;10.38;9.63;;;25.50;99.90;;;;;;5019596;28;20069;-65
2021/06/20 07:57:21;;;;;;;10.85;9.85;;;25.90;99.90;;;;;;5016336;28;20183;-68
2021/06/20 07:59:49;;;;;;;8.15;7.35;;;26.10;99.90;;;;;;5017732;28;20127;-68
2021/06/20 08:02:16;;;;;;;11.48;7.50;;;26.50;97.80;;;;;;5016304;28;20040;-67
2021/06/20 08:04:44;;;;;;;7.72;6.93;;;26.80;97.50;;;;;;5016791;28;20159;-66
2021/06/20 08:07:11;;;;;;;8.73;7.13;;;27.00;97.90;;;;;;5014713;28;20115;-68
2021/06/20 08:09:38;;;;;;;7.47;6.80;;;27.30;95.70;;;;;;5017747;28;20586;-67
2021/06/20 08:12:08;;;;;;;7.80;6.72;;;27.50;95.70;;;;;;5016691;28;20188;-66
2021/06/20 08:14:37;;;;;;;9.75;7.47;;;27.60;95.90;;;;;;5014445;28;20361;-66
2021/06/20 08:17:04;;;;;;;8.05;7.35;;;27.70;95.90;;;;;;5015555;28;20136;-69
2021/06/20 08:19:32;;;;;;;7.75;7.15;;;27.90;95.60;;;;;;5018481;28;20056;-66
2021/06/20 08:21:59;;;;;;;9.07;7.28;;;28.20;95.20;;;;;;5014272;28;21186;-67
2021/06/20 08:24:26;;;;;;;7.45;6.78;;;28.40;94.30;;;;;;5013269;28;20147;-66
2021/06/20 08:26:53;;;;;;;9.13;8.05;;;28.50;93.30;;;;;;5015885;28;20574;-67
2021/06/20 08:29:20;;;;;;;8.85;7.30;;;28.50;93.90;;;;;;5016230;28;20046;-68
2021/06/20 08:31:47;;;;;;;13.63;9.95;;;28.60;93.10;;;;;;5016621;28;20188;-69
2021/06/20 08:34:14;;;;;;;9.65;8.60;;;27.70;94.60;;;;;;5017538;28;20044;-66
2021/06/20 08:36:41;;;;;;;8.70;7.90;;;26.80;96.10;;;;;;5010542;28;20496;-68
2021/06/20 08:39:08;;;;;;;9.75;8.85;;;26.50;96.60;;;;;;5017634;28;20115;-65
2021/06/20 08:41:40;;;;;;;10.02;9.20;;;26.20;96.90;;;;;;5015535;28;20049;-65
2021/06/20 08:44:25;;;;;;;11.73;10.73;;;25.90;97.70;;;;;;5017877;28;20081;-68
2021/06/20 08:46:53;;;;;;;10.48;9.55;;;25.60;98.00;;;;;;5014741;28;20179;-66
2021/06/20 08:49:20;;;;;;;10.93;9.73;;;25.10;98.50;;;;;;5016968;28;20145;-68
2021/06/20 08:51:51;;;;;;;11.13;10.15;;;24.90;98.90;;;;;;5015934;28;20096;-68
2021/06/20 08:54:19;;;;;;;10.77;9.98;;;24.40;99.60;;;;;;5017010;28;20574;-66
2021/06/20 08:56:50;;;;;;;11.43;10.52;;;24.20;99.90;;;;;;5014468;28;20165;-68
2021/06/20 08:59:22;;;;;;;14.30;13.10;;;24.00;99.90;;;;;;5016427;28;20045;-68
2021/06/20 09:01:51;;;;;;;13.07;11.88;;;23.80;99.90;;;;;;5014648;28;20088;-67
2021/06/20 09:04:27;;;;;;;12.10;11.05;;;23.80;99.90;;;;;;5017480;28;20075;-68
2021/06/20 09:06:54;;;;;;;11.65;10.52;;;23.80;99.90;;;;;;5014929;28;20092;-66
2021/06/20 09:09:34;;;;;;;12.70;11.40;;;24.00;99.90;;;;;;5015564;28;20107;-68
2021/06/20 09:12:12;;;;;;;11.88;10.93;;;24.10;99.90;;;;;;5015672;28;20300;-65
2021/06/20 09:14:50;;;;;;;11.43;10.48;;;24.30;99.90;;;;;;5015150;28;20051;-68
2021/06/20 09:17:25;;;;;;;14.32;13.07;;;24.60;99.90;;;;;;5014793;28;20164;-65
2021/06/20 09:20:01;;;;;;;12.60;11.50;;;24.80;99.90;;;;;;5015727;28;20080;-68
2021/06/20 09:22:28;;;;;;;11.95;10.85;;;25.00;99.80;;;;;;5015045;28;20089;-66
2021/06/20 09:25:03;;;;;;;13.15;11.73;;;25.10;99.50;;;;;;5014537;28;20196;-65
2021/06/20 09:27:30;;;;;;;11.85;11.00;;;25.20;99.20;;;;;;5016434;28;20084;-68
2021/06/20 09:30:14;;;;;;;10.43;9.40;;;25.20;99.10;;;;;;5013454;28;20136;-65
2021/06/20 09:33:03;;;;;;;11.23;10.27;;;25.50;99.20;;;;;;5014484;28;21639;-66
2021/06/20 09:35:55;;;;;;;10.73;9.88;;;25.90;98.40;;;;;;5015192;28;20132;-68
2021/06/20 09:38:32;;;;;;;13.55;9.30;;;26.20;98.10;;;;;;5015160;28;20439;-68
2021/06/20 09:41:11;;;;;;;9.45;8.55;;;26.60;97.10;;;;;;5011763;28;20160;-67
2021/06/20 09:43:52;;;;;;;10.68;9.35;;;27.20;96.50;;;;;;5012436;28;20136;-67
2021/06/20 09:46:19;;;;;;;9.35;8.55;;;27.50;96.00;;;;;;5016654;28;20095;-66
2021/06/20 09:48:47;;;;;;;9.52;8.73;;;27.80;95.90;;;;;;5014955;28;20147;-69
2021/06/20 09:51:29;;;;;;;13.02;8.52;;;28.00;95.10;;;;;;5016263;28;20076;-68
2021/06/20 09:53:56;;;;;;;9.23;8.30;;;28.10;95.30;;;;;;5016046;28;20156;-68
2021/06/20 09:56:29;;;;;;;10.93;9.55;;;28.30;94.10;;;;;;5019262;28;20121;-67
2021/06/20 09:59:02;;;;;;;9.32;8.55;;;28.20;94.60;;;;;;5018123;28;20911;-66
2021/06/20 10:01:35;;;;;;;9.00;8.30;;;28.00;95.00;;;;;;5020601;28;20288;-68
2021/06/20 10:04:03;;;;;;;10.05;9.15;;;28.10;94.60;;;;;;5018175;28;20047;-67
2021/06/20 10:06:30;;;;;;;10.32;9.38;;;27.70;94.90;;;;;;5017945;28;20037;-67
2021/06/20 10:08:58;;;;;;;9.82;8.95;;;27.50;95.60;;;;;;5019575;28;20194;-66
2021/06/20 10:11:25;;;;;;;9.45;8.52;;;27.30;95.70;;;;;;5020798;28;20053;-69
2021/06/20 10:13:52;;;;;;;10.45;9.45;;;27.10;95.70;;;;;;5017646;28;21523;-65
2021/06/20 10:16:33;;;;;;;9.70;8.70;;;27.20;96.60;;;;;;5020400;28;20804;-67
2021/06/20 10:19:16;;;;;;;9.93;8.88;;;27.50;95.00;;;;;;5016963;28;20508;-69
2021/06/20 10:21:46;;;;;;;10.55;9.55;;;27.70;95.30;;;;;;5018053;28;20069;-68
2021/06/20 10:24:17;;;;;;;11.13;9.98;;;27.10;95.70;;;;;;5017295;28;20144;-67
2021/06/20 10:27:03;;;;;;;10.75;9.75;;;26.60;96.20;;;;;;5018240;28;20103;-66
2021/06/20 10:29:36;;;;;;;11.68;10.70;;;26.40;96.60;;;;;;5017024;28;20057;-67
2021/06/20 10:32:20;;;;;;;9.68;8.98;;;26.10;96.80;;;;;;5020274;28;20052;-68
2021/06/20 10:35:02;;;;;;;10.98;10.02;;;25.80;97.30;;;;;;5016706;28;20065;-68
2021/06/20 10:37:36;;;;;;;23.25;11.35;;;25.50;98.00;;;;;;5017652;28;20053;-68
2021/06/20 10:40:16;;;;;;;10.88;9.93;;;25.10;98.60;;;;;;5019728;28;20144;-68
2021/06/20 10:42:43;;;;;;;10.90;9.88;;;24.90;99.30;;;;;;5016894;28;20236;-65
2021/06/20 10:45:11;;;;;;;12.93;11.70;;;24.80;99.50;;;;;;5050854;28;20061;-67
2021/06/20 10:47:43;;;;;;;11.65;10.57;;;24.80;99.70;;;;;;5015047;28;20045;-66
2021/06/20 10:50:15;;;;;;;19.27;10.55;;;24.80;99.90;;;;;;5019852;28;20053;-68
2021/06/20 10:52:55;;;;;;;13.43;12.07;;;24.80;99.90;;;;;;5016804;28;20099;-67
2021/06/20 10:55:22;;;;;;;;;;;24.90;99.30;;;;;;5020346;28;20514;-67
2021/06/20 10:57:54;;;;;;;12.10;11.15;;;24.80;99.50;;;;;;5017627;28;19976;-65
2021/06/20 11:00:30;;;;;;;12.90;11.65;;;24.80;99.70;;;;;;5019347;28;20053;-66
2021/06/20 11:03:08;;;;;;;11.77;10.75;;;24.90;99.50;;;;;;5016418;28;20049;-68
2021/06/20 11:05:52;;;;;;;11.75;10.68;;;25.20;98.80;;;;;;5018366;28;21119;-67
2021/06/20 11:08:34;;;;;;;12.07;9.88;;;25.40;98.60;;;;;;5015726;28;20046;-67
2021/06/20 11:11:04;;;;;;;11.65;10.55;;;25.60;98.30;;;;;;5010347;28;20115;-69
2021/06/20 11:13:31;;;;;;;11.88;10.70;;;25.70;98.40;;;;;;5008304;28;20722;-66
2021/06/20 11:16:07;;;;;;;10.90;9.95;;;26.00;98.00;;;;;;5015132;28;20176;-69
2021/06/20 11:18:34;;;;;;;10.25;9.55;;;26.50;97.60;;;;;;5012543;28;20758;-66
2021/06/20 11:21:02;;;;;;;11.13;10.02;;;26.60;96.70;;;;;;5017943;28;20152;-67
2021/06/20 11:23:30;;;;;;;9.85;9.15;;;26.70;96.80;;;;;;5014865;28;20148;-65
2021/06/20 11:26:02;;;;;;;9.45;8.35;;;26.80;96.90;;;;;;5014821;28;20247;-66
2021/06/20 11:28:29;;;;;;;10.88;9.60;;;27.00;96.90;;;;;;5013115;28;20116;-67
2021/06/20 11:31:10;;;;;;;10.23;9.35;;;26.90;97.10;;;;;;5016353;28;20561;-68
2021/06/20 11:33:39;;;;;;;10.48;9.63;;;26.90;96.60;;;;;;5013533;28;20060;-69
2021/06/20 11:36:06;;;;;;;11.07;10.18;;;26.50;96.90;;;;;;5016713;28;20471;-66
2021/06/20 11:38:39;;;;;;;9.82;9.02;;;26.20;97.50;;;;;;5014009;28;20049;-66
2021/06/20 11:41:19;;;;;;;10.65;9.77;;;26.30;97.40;;;;;;5017392;28;20134;-68
2021/06/20 11:44:00;;;;;;;10.63;9.50;;;26.00;98.00;;;;;;5017161;28;20103;-67
2021/06/20 11:46:30;;;;;;;10.80;9.95;;;25.90;98.40;;;;;;5016274;28;20156;-69
2021/06/20 11:49:04;;;;;;;11.38;10.48;;;26.10;97.90;;;;;;5016957;28;20148;-68
2021/06/20 11:51:44;;;;;;;11.70;10.88;;;26.20;97.80;;;;;;5019003;28;20489;-67
2021/06/20 11:54:15;;;;;;;10.70;9.88;;;26.20;97.50;;;;;;5016441;28;20049;-66
2021/06/20 11:57:01;;;;;;;11.50;10.35;;;26.40;97.50;;;;;;5017381;28;20073;-66
2021/06/20 11:59:40;;;;;;;10.73;9.75;;;26.40;97.30;;;;;;5019329;28;20160;-65
2021/06/20 12:02:14;;;;;;;11.80;10.82;;;26.70;97.40;;;;;;5019661;28;20166;-65
2021/06/20 12:04:44;;;;;;;11.30;10.30;;;26.80;97.00;;;;;;5013169;28;20045;-66
2021/06/20 12:07:11;;;;;;;;;;;26.80;97.00;;;;;;5014622;28;20049;-69
2021/06/20 12:09:39;;;;;;;10.98;9.90;;;26.90;97.00;;;;;;5013915;28;19936;-69
2021/06/20 12:12:10;;;;;;;11.73;10.73;;;26.90;97.20;;;;;;5014959;28;20053;-66
2021/06/20 12:14:39;;;;;;;20.73;11.40;;;26.20;97.10;;;;;;5015776;28;20060;-67
2021/06/20 12:17:06;;;;;;;12.07;10.95;;;25.50;98.50;;;;;;5019804;28;20524;-66
2021/06/20 12:19:36;;;;;;;12.18;11.05;;;25.20;99.20;;;;;;5017378;28;20049;-66
2021/06/20 12:22:21;;;;;;;13.75;12.40;;;25.40;99.30;;;;;;5015565;28;20049;-67
2021/06/20 12:24:59;;;;;;;11.10;10.30;;;25.50;98.80;;;;;;5015510;28;20044;-67
2021/06/20 12:27:31;;;;;;;13.27;12.07;;;25.60;98.90;;;;;;5013718;28;20052;-68
2021/06/20 12:30:11;;;;;;;11.73;10.93;;;25.40;98.90;;;;;;5014902;28;21570;-66
2021/06/20 12:32:37;;;;;;;11.23;10.10;;;25.50;98.50;;;;;;5012914;28;20459;-66
2021/06/20 12:35:05;;;;;;;12.73;11.77;;;25.50;98.80;;;;;;5015416;28;20053;-69
2021/06/20 12:37:42;;;;;;;13.88;12.77;;;25.70;98.60;;;;;;5012581;28;20077;-69
2021/06/20 12:40:18;;;;;;;11.60;10.65;;;25.70;98.50;;;;;;5014285;28;20135;-66
2021/06/20 12:42:46;;;;;;;13.07;12.00;;;25.90;98.60;;;;;;5013389;28;20053;-67
2021/06/20 12:45:23;;;;;;;11.43;10.50;;;26.10;98.00;;;;;;5016161;28;21048;-65